Time;durP1;ratioP1;P1;durP2;ratioP2;P2;SDS_P1;SDS_P2;PMS_P1;PMS_P2;Temp;Humidity;BMP_temperature;BMP_pressure;BME280_temperature;BME280_humidity;BME280_pressure;Samples;Min_cycle;Max_cycle;Signal;HPM_P1;HPM_P2
2021/11/19 00:02:00;;;;;;;;;;;;;;;;;;;;;
2021/11/19 00:05:20;;;;;;;40.38;23.02;;;0.70;99.90;;;;;;6129362;23;20279;-90
2021/11/19 00:08:47;;;;;;;;;;;;;;;;;;;;;
2021/11/19 00:12:08;;;;;;;;;;;;;;;;;;;;;
2021/11/19 00:15:33;;;;;;;;;;;;;;;;;;;;;
2021/11/19 00:18:55;;;;;;;48.45;26.17;;;0.60;99.90;;;;;;6240830;22;20023;-86
2021/11/19 00:21:59;;;;;;;49.42;24.50;;;0.60;99.90;;;;;;6219920;22;20043;-87
2021/11/19 00:25:21;;;;;;;;;;;;;;;;;;;;;
2021/11/19 00:28:29;;;;;;;;;;;;;;;;;;;;;
2021/11/19 00:34:37;;;;;;;;;;;;;;;;;;;;;
2021/11/19 00:37:40;;;;;;;;;;;;;;;;;;;;;
2021/11/19 00:41:03;;;;;;;;;;;0.60;99.90;;;;;;6078240;23;20030;-87
2021/11/19 00:47:06;;;;;;;;;;;;;;;;;;;;;
2021/11/19 00:50:03;;;;;;;54.03;29.60;;;0.40;99.90;;;;;;6259229;23;20076;-88
2021/11/19 00:53:22;;;;;;;59.88;31.20;;;0.50;99.90;;;;;;6171819;23;20085;-87
2021/11/19 01:00:30;;;;;;;58.13;30.40;;;0.60;99.90;;;;;;6167218;23;20030;-90
2021/11/19 01:03:36;;;;;;;;;;;;;;;;;;;;;
2021/11/19 01:06:48;;;;;;;57.43;30.63;;;0.70;99.90;;;;;;6174908;23;20519;-90
2021/11/19 01:09:58;;;;;;;59.22;30.73;;;0.70;99.90;;;;;;6144577;23;20033;-89
2021/11/19 01:12:55;;;;;;;59.90;31.77;;;0.70;99.90;;;;;;6137915;23;20029;-89
2021/11/19 01:16:10;;;;;;;63.33;31.60;;;0.90;99.90;;;;;;6141736;23;20036;-89
2021/11/19 01:19:17;;;;;;;65.03;33.08;;;0.90;99.90;;;;;;6140537;23;20030;-89
2021/11/19 01:22:20;;;;;;;73.32;34.92;;;1.10;99.90;;;;;;6142891;23;20032;-90
2021/11/19 01:25:28;;;;;;;67.28;34.97;;;1.30;99.90;;;;;;6229642;23;20119;-90
2021/11/19 01:28:43;;;;;;;68.20;34.65;;;1.40;99.90;;;;;;6223695;23;20043;-89
2021/11/19 01:32:05;;;;;;;64.88;33.35;;;1.50;99.90;;;;;;6224229;23;20027;-88
2021/11/19 01:34:53;;;;;;;77.32;36.58;;;1.60;99.90;;;;;;6190240;23;20404;-89
2021/11/19 01:37:46;;;;;;;69.75;35.55;;;1.70;99.90;;;;;;6226912;23;20020;-89
2021/11/19 01:40:40;;;;;;;72.60;35.58;;;1.60;99.90;;;;;;6208972;23;20028;-89
2021/11/19 01:43:35;;;;;;;70.25;34.83;;;1.60;99.90;;;;;;6235653;23;20035;-88
2021/11/19 01:46:31;;;;;;;65.53;34.75;;;1.60;99.90;;;;;;6234977;23;20103;-90
2021/11/19 01:49:34;;;;;;;67.72;33.88;;;1.60;99.90;;;;;;6226880;23;20107;-89
2021/11/19 01:52:44;;;;;;;65.28;33.65;;;1.60;99.90;;;;;;6264395;22;20031;-89
2021/11/19 01:55:43;;;;;;;73.53;33.97;;;1.60;99.90;;;;;;6270111;22;20015;-88
2021/11/19 01:59:01;;;;;;;67.03;34.42;;;1.50;99.90;;;;;;6241222;23;20090;-90
2021/11/19 02:02:01;;;;;;;67.35;32.75;;;1.50;99.90;;;;;;6227137;23;20031;-88
2021/11/19 02:04:59;;;;;;;62.72;32.63;;;1.50;99.90;;;;;;6248273;22;20012;-88
2021/11/19 02:07:53;;;;;;;73.97;33.08;;;1.40;99.90;;;;;;6246813;23;20052;-88
2021/11/19 02:11:22;;;;;;;74.00;32.97;;;1.40;99.90;;;;;;6236494;23;20058;-89
2021/11/19 02:14:54;;;;;;;70.53;33.95;;;1.30;99.90;;;;;;6238707;23;20028;-90
2021/11/19 02:17:57;;;;;;;65.25;32.22;;;1.20;99.90;;;;;;6260140;23;20072;-88
2021/11/19 02:21:28;;;;;;;;;;;;;;;;;;;;;
2021/11/19 02:25:09;;;;;;;64.82;31.77;;;1.10;99.90;;;;;;6245633;23;20024;-90
2021/11/19 02:28:45;;;;;;;;;;;;;;;;;;;;;
2021/11/19 02:32:13;;;;;;;71.28;34.95;;;1.00;99.90;;;;;;6233274;23;20035;-89
2021/11/19 02:35:33;;;;;;;;;;;;;;;;;;;;;
2021/11/19 02:38:57;;;;;;;;;;;;;;;;;;;;;
2021/11/19 02:42:35;;;;;;;64.60;32.75;;;0.90;99.90;;;;;;6246986;23;20020;-90
2021/11/19 02:46:18;;;;;;;64.93;31.08;;;0.80;99.90;;;;;;6253071;23;20439;-88
2021/11/19 02:50:01;;;;;;;59.72;29.88;;;0.70;99.90;;;;;;6248156;23;20024;-90
2021/11/19 02:53:08;;;;;;;60.22;29.58;;;0.60;99.90;;;;;;6246700;23;20035;-89
2021/11/19 02:56:05;;;;;;;58.58;28.15;;;0.50;99.90;;;;;;6203692;23;20024;-90
2021/11/19 02:59:03;;;;;;;61.70;29.05;;;0.50;99.90;;;;;;6226424;23;20166;-87
2021/11/19 03:02:07;;;;;;;73.93;29.90;;;0.50;99.90;;;;;;6226804;23;20028;-90
2021/11/19 03:05:21;;;;;;;61.63;29.38;;;0.50;99.90;;;;;;6206382;23;20034;-89
2021/11/19 03:08:26;;;;;;;;;;;;;;;;;;;;;
2021/11/19 03:11:30;;;;;;;70.68;31.67;;;0.50;99.90;;;;;;6249770;23;20103;-89
2021/11/19 03:14:33;;;;;;;71.85;31.83;;;0.50;99.90;;;;;;6220337;23;20082;-88
2021/11/19 03:17:26;;;;;;;67.05;31.42;;;0.60;99.90;;;;;;6231559;23;20024;-87
2021/11/19 03:20:17;;;;;;;61.88;29.67;;;0.60;99.90;;;;;;6229129;23;20064;-88
2021/11/19 03:23:38;;;;;;;;;;;;;;;;;;;;;
2021/11/19 03:26:42;;;;;;;61.13;30.17;;;0.60;99.90;;;;;;6252321;23;20535;-89
2021/11/19 03:29:52;;;;;;;64.70;29.40;;;0.50;99.90;;;;;;6225410;23;20098;-89
2021/11/19 03:33:10;;;;;;;59.67;29.20;;;0.50;99.90;;;;;;6105655;23;20049;-89
2021/11/19 03:36:24;;;;;;;68.65;30.33;;;0.40;99.90;;;;;;6125147;23;20170;-88
2021/11/19 03:39:37;;;;;;;;;;;;;;;;;;;;;
2021/11/19 03:42:42;;;;;;;65.80;30.15;;;0.50;99.90;;;;;;6122351;23;20030;-90
2021/11/19 03:46:05;;;;;;;57.65;29.35;;;0.50;99.90;;;;;;6103429;23;20512;-89
2021/11/19 03:49:26;;;;;;;56.88;27.70;;;0.40;99.90;;;;;;6109159;23;20034;-90
2021/11/19 03:52:47;;;;;;;;;;;;;;;;;;;;;
2021/11/19 03:56:01;;;;;;;60.83;27.58;;;0.20;99.90;;;;;;6246147;23;20028;-89
2021/11/19 03:59:23;;;;;;;61.45;29.20;;;0.20;99.90;;;;;;6223392;23;20086;-89
2021/11/19 04:02:47;;;;;;;;;;;;;;;;;;;;;
2021/11/19 04:05:45;;;;;;;57.75;29.95;;;0.10;99.90;;;;;;6243144;23;20035;-90
2021/11/19 04:09:14;;;;;;;;;;;;;;;;;;;;;
2021/11/19 04:12:25;;;;;;;57.25;26.98;;;0.00;99.90;;;;;;6121783;23;20037;-89
2021/11/19 04:15:43;;;;;;;;;;;;;;;;;;;;;
2021/11/19 04:18:59;;;;;;;55.95;25.80;;;-0.30;99.90;;;;;;6123446;23;20045;-90
2021/11/19 04:22:16;;;;;;;54.85;25.67;;;-0.30;99.90;;;;;;6011376;23;20034;-89
2021/11/19 04:25:56;;;;;;;;;;;;;;;;;;;;;
2021/11/19 04:29:19;;;;;;;50.50;24.20;;;-0.40;99.90;;;;;;5989967;23;20026;-91
2021/11/19 04:32:32;;;;;;;;;;;;;;;;;;;;;
2021/11/19 04:39:35;;;;;;;56.50;24.60;;;-0.40;99.90;;;;;;5982260;24;20468;-90
2021/11/19 04:43:15;;;;;;;47.00;23.95;;;-0.30;99.90;;;;;;5982383;24;20237;-90
2021/11/19 04:46:13;;;;;;;55.28;22.70;;;-0.40;99.90;;;;;;5979990;24;20123;-89
2021/11/19 04:49:23;;;;;;;50.47;23.17;;;-0.30;99.90;;;;;;5982228;24;20064;-89
2021/11/19 04:52:24;;;;;;;65.65;25.75;;;-0.40;99.90;;;;;;6024267;23;20117;-90
2021/11/19 04:55:21;;;;;;;53.65;23.75;;;-0.40;99.90;;;;;;6248059;23;20378;-90
2021/11/19 04:58:38;;;;;;;55.50;24.55;;;-0.40;99.90;;;;;;6234294;23;20253;-90
2021/11/19 05:01:52;;;;;;;58.22;23.70;;;-0.40;99.90;;;;;;6254319;23;20295;-87
2021/11/19 05:05:15;;;;;;;;;;;;;;;;;;;;;
2021/11/19 05:09:20;;;;;;;50.05;24.65;;;-0.50;99.90;;;;;;6148558;23;20100;-90
2021/11/19 05:12:53;;;;;;;55.80;22.63;;;-0.50;99.90;;;;;;6155062;23;20032;-89
2021/11/19 05:16:39;;;;;;;;;;;;;;;;;;;;;
2021/11/19 05:19:50;;;;;;;;;;;;;;;;;;;;;
2021/11/19 05:23:34;;;;;;;;;;;;;;;;;;;;;
2021/11/19 05:26:55;;;;;;;59.40;28.20;;;-0.60;99.90;;;;;;6144329;23;20457;-89
2021/11/19 05:33:20;;;;;;;56.97;27.38;;;-0.70;99.90;;;;;;6103523;23;20124;-89
2021/11/19 05:36:08;;;;;;;70.82;30.52;;;-0.70;99.90;;;;;;6215232;23;20054;-89
2021/11/19 05:38:56;;;;;;;58.28;28.42;;;-0.70;99.90;;;;;;6246969;23;20030;-89
2021/11/19 05:41:51;;;;;;;69.35;29.95;;;-0.60;99.90;;;;;;6209197;23;20028;-89
2021/11/19 05:44:40;;;;;;;64.55;31.95;;;-0.70;99.90;;;;;;6224890;23;20113;-90
2021/11/19 05:47:31;;;;;;;;;;;-0.60;99.90;;;;;;6204901;23;20028;-90
2021/11/19 05:50:24;;;;;;;71.95;31.63;;;-0.50;99.90;;;;;;6223866;23;19934;-89
2021/11/19 05:53:16;;;;;;;70.10;32.65;;;-0.50;99.90;;;;;;6226397;23;20028;-89
2021/11/19 05:56:04;;;;;;;73.90;35.47;;;-0.40;99.90;;;;;;6245491;23;20107;-89
2021/11/19 05:58:52;;;;;;;69.40;33.97;;;-0.40;99.90;;;;;;6226608;23;20028;-90
2021/11/19 06:01:44;;;;;;;67.10;32.40;;;-0.50;99.90;;;;;;6226938;23;20138;-91
2021/11/19 06:04:32;;;;;;;74.20;35.95;;;-0.50;99.90;;;;;;6250408;23;20028;-88
2021/11/19 06:07:20;;;;;;;79.03;38.95;;;-0.60;99.90;;;;;;6224531;23;20031;-89
2021/11/19 06:18:56;;;;;;;;;;;;;;;;;;;;;
2021/11/19 06:26:26;;;;;;;;;;;;;;;;;;;;;
2021/11/19 06:37:41;;;;;;;65.90;29.17;;;-0.70;99.90;;;;;;6211596;22;20051;-88
2021/11/19 06:41:20;;;;;;;58.65;27.25;;;-0.70;99.90;;;;;;6237543;23;20024;-89
2021/11/19 06:44:11;;;;;;;65.22;27.60;;;-0.70;99.90;;;;;;6225657;23;20114;-88
2021/11/19 06:47:21;;;;;;;;;;;;;;;;;;;;;
2021/11/19 06:51:03;;;;;;;56.50;26.25;;;-0.70;99.90;;;;;;6250842;23;20105;-88
2021/11/19 06:53:53;;;;;;;66.95;31.17;;;-0.70;99.90;;;;;;6226540;23;20051;-86
2021/11/19 06:56:48;;;;;;;66.50;29.70;;;-0.70;99.90;;;;;;6228503;23;20020;-88
2021/11/19 06:59:40;;;;;;;68.27;30.00;;;-0.60;99.90;;;;;;6234657;23;20028;-89
2021/11/19 07:02:27;;;;;;;62.35;30.27;;;-0.50;99.90;;;;;;6235655;23;20097;-87
2021/11/19 07:05:19;;;;;;;70.05;26.45;;;-0.50;99.90;;;;;;6233291;23;20028;-87
2021/11/19 07:08:13;;;;;;;66.25;27.50;;;-0.50;99.90;;;;;;6229750;23;20387;-86
2021/11/19 07:11:18;;;;;;;67.57;27.13;;;-0.50;99.90;;;;;;6227715;23;20352;-86
2021/11/19 07:14:06;;;;;;;96.32;35.40;;;-0.40;99.90;;;;;;6228263;23;20034;-86
2021/11/19 07:16:56;;;;;;;76.90;33.70;;;-0.30;99.90;;;;;;6225336;23;20102;-87
2021/11/19 07:19:51;;;;;;;62.85;29.33;;;-0.30;99.90;;;;;;6207767;23;20464;-86
2021/11/19 07:22:41;;;;;;;54.28;24.65;;;-0.30;99.90;;;;;;6206770;23;20103;-87
2021/11/19 07:25:38;;;;;;;55.33;23.90;;;-0.20;99.90;;;;;;6227973;23;20119;-86
2021/11/19 07:28:34;;;;;;;50.05;22.67;;;-0.10;99.90;;;;;;6221031;23;20020;-86
2021/11/19 07:31:26;;;;;;;49.78;23.25;;;0.00;99.90;;;;;;6224082;23;20068;-87
2021/11/19 07:34:17;;;;;;;61.08;28.75;;;0.10;99.90;;;;;;6224363;23;20098;-86
2021/11/19 07:37:06;;;;;;;72.28;30.65;;;0.20;99.90;;;;;;6226721;22;20269;-88
2021/11/19 07:39:58;;;;;;;65.55;29.75;;;0.20;99.90;;;;;;6222266;23;20023;-88
2021/11/19 07:42:50;;;;;;;64.40;28.15;;;0.20;99.90;;;;;;6224952;23;20035;-88
2021/11/19 07:45:49;;;;;;;62.75;27.48;;;0.20;99.90;;;;;;6249934;22;20458;-88
2021/11/19 07:48:43;;;;;;;59.83;28.35;;;0.30;99.90;;;;;;6227190;23;20106;-88
2021/11/19 07:51:51;;;;;;;69.40;32.20;;;0.30;99.90;;;;;;6208812;23;20087;-87
2021/11/19 07:54:39;;;;;;;61.50;30.42;;;0.40;99.90;;;;;;6246348;22;20028;-87
2021/11/19 07:57:34;;;;;;;67.05;32.63;;;0.50;99.90;;;;;;6223877;23;20023;-87
2021/11/19 08:00:40;;;;;;;;;;;;;;;;;;;;;
2021/11/19 08:12:13;;;;;;;56.78;29.98;;;1.00;99.90;;;;;;6157086;23;20033;-90
2021/11/19 08:16:30;;;;;;;53.55;27.25;;;1.30;99.90;;;;;;6097275;23;20033;-90
2021/11/19 08:19:52;;;;;;;52.50;24.85;;;1.40;99.90;;;;;;5982626;23;20038;-89
2021/11/19 08:23:09;;;;;;;48.95;25.67;;;1.40;99.90;;;;;;5966836;23;20080;-89
2021/11/19 08:26:01;;;;;;;57.05;26.73;;;1.40;99.90;;;;;;5983966;23;20185;-90
2021/11/19 08:32:51;;;;;;;47.60;26.02;;;1.80;99.90;;;;;;5976817;23;20172;-90
2021/11/19 08:36:42;;;;;;;;;;;;;;;;;;;;;
2021/11/19 08:48:12;;;;;;;35.38;20.70;;;2.70;99.90;;;;;;5925104;24;20032;-88
2021/11/19 08:51:03;;;;;;;32.25;20.35;;;3.00;99.90;;;;;;6003161;23;20613;-90
2021/11/19 08:53:53;;;;;;;33.93;21.33;;;3.40;99.90;;;;;;6037555;23;20023;-90
2021/11/19 08:57:00;;;;;;;29.38;19.13;;;3.50;99.90;;;;;;6037756;23;20251;-86
2021/11/19 08:59:49;;;;;;;25.00;16.00;;;3.90;99.90;;;;;;6036246;23;20059;-87
2021/11/19 09:02:37;;;;;;;23.95;15.77;;;4.00;99.90;;;;;;6146208;23;20040;-85
2021/11/19 09:05:30;;;;;;;21.48;13.82;;;4.30;99.90;;;;;;6202713;23;20106;-85
2021/11/19 09:08:20;;;;;;;19.70;13.13;;;4.60;99.90;;;;;;6220347;23;20028;-86
2021/11/19 09:11:11;;;;;;;12.82;9.43;;;5.20;99.90;;;;;;6224394;22;20102;-86
2021/11/19 09:13:59;;;;;;;13.93;8.05;;;5.80;99.90;;;;;;6221276;23;20020;-86
2021/11/19 09:17:05;;;;;;;11.55;7.88;;;6.20;99.90;;;;;;6242497;23;20039;-86
2021/11/19 09:20:15;;;;;;;10.13;6.90;;;6.30;99.90;;;;;;6222150;23;20024;-86
2021/11/19 09:23:19;;;;;;;10.95;7.30;;;6.80;99.90;;;;;;6243844;23;20311;-87
2021/11/19 09:26:14;;;;;;;13.60;9.55;;;7.60;99.90;;;;;;6223908;23;20031;-87
2021/11/19 09:29:06;;;;;;;16.88;11.50;;;8.50;99.90;;;;;;6224554;23;20115;-87
2021/11/19 09:31:59;;;;;;;15.30;10.07;;;9.30;99.90;;;;;;6244784;23;20039;-87
2021/11/19 09:34:48;;;;;;;;;;;10.20;99.90;;;;;;6224715;23;20343;-86
2021/11/19 09:37:39;;;;;;;22.67;11.20;;;10.70;99.90;;;;;;6223211;23;19946;-85
2021/11/19 09:40:41;;;;;;;20.52;11.30;;;9.90;99.90;;;;;;6224159;23;20423;-90
2021/11/19 09:43:40;;;;;;;17.75;10.55;;;10.10;99.90;;;;;;6224469;23;20357;-91
2021/11/19 09:46:48;;;;;;;19.48;10.05;;;10.90;99.90;;;;;;6226900;22;20031;-90
2021/11/19 09:50:10;;;;;;;19.13;11.45;;;11.20;99.90;;;;;;6223012;23;20047;-88
2021/11/19 09:53:26;;;;;;;23.23;12.13;;;10.60;99.90;;;;;;6245805;23;20024;-90
2021/11/19 09:56:38;;;;;;;17.02;9.90;;;10.60;99.90;;;;;;6221819;23;20031;-88
2021/11/19 09:59:36;;;;;;;16.60;10.43;;;10.50;99.90;;;;;;6243739;23;20031;-90
2021/11/19 10:03:06;;;;;;;15.27;9.15;;;10.40;99.90;;;;;;6243937;23;20323;-88
2021/11/19 10:06:19;;;;;;;12.48;8.15;;;11.80;97.40;;;;;;6123430;23;20030;-89
2021/11/19 10:09:21;;;;;;;14.10;8.07;;;12.90;94.60;;;;;;6102859;23;20128;-90
2021/11/19 10:12:24;;;;;;;11.38;7.18;;;14.00;90.70;;;;;;6222095;23;20047;-91
2021/11/19 10:15:34;;;;;;;13.30;6.47;;;15.10;78.90;;;;;;6243753;23;20051;-88
2021/11/19 10:18:57;;;;;;;11.98;7.25;;;15.20;76.40;;;;;;6222126;23;20111;-90
2021/11/19 10:22:01;;;;;;;12.55;6.95;;;15.00;73.20;;;;;;6217161;23;20024;-89
2021/11/19 10:25:13;;;;;;;12.50;7.47;;;15.30;71.10;;;;;;6223695;23;20028;-87
2021/11/19 10:28:05;;;;;;;9.68;6.72;;;15.50;69.60;;;;;;6222281;23;20039;-88
2021/11/19 10:30:57;;;;;;;12.27;6.15;;;14.60;71.60;;;;;;6222949;23;20074;-83
2021/11/19 10:34:41;;;;;;;10.90;6.55;;;14.30;74.10;;;;;;6222152;23;20024;-86
2021/11/19 10:37:50;;;;;;;12.35;6.35;;;14.50;73.40;;;;;;6122033;23;20052;-86
2021/11/19 10:41:18;;;;;;;9.30;6.00;;;15.30;69.30;;;;;;6120916;23;20025;-86
2021/11/19 10:44:23;;;;;;;7.80;4.95;;;15.10;69.50;;;;;;6198496;23;20028;-87
2021/11/19 10:47:33;;;;;;;11.95;7.70;;;15.10;69.00;;;;;;6223444;23;20024;-86
2021/11/19 10:50:26;;;;;;;13.52;7.22;;;14.60;72.20;;;;;;6231054;23;20301;-85
2021/11/19 10:53:18;;;;;;;11.98;6.50;;;14.50;74.50;;;;;;6244308;23;20050;-86
2021/11/19 10:56:33;;;;;;;12.75;7.57;;;14.60;71.80;;;;;;6243451;23;20016;-86
2021/11/19 10:59:29;;;;;;;13.65;7.25;;;14.90;72.10;;;;;;6219892;23;20076;-92
2021/11/19 11:02:46;;;;;;;;;;;;;;;;;;;;;
2021/11/19 11:06:03;;;;;;;9.50;6.72;;;15.40;72.80;;;;;;6248530;23;20130;-92
2021/11/19 11:12:46;;;;;;;14.07;7.43;;;16.30;68.80;;;;;;6261331;22;20035;-87
2021/11/19 11:15:50;;;;;;;12.70;6.68;;;16.70;67.00;;;;;;6232574;23;20028;-92
2021/11/19 11:19:59;;;;;;;9.70;5.70;;;18.00;62.20;;;;;;6224746;23;20028;-94
2021/11/19 11:23:02;;;;;;;9.70;6.25;;;18.40;59.20;;;;;;6222840;23;20174;-90
2021/11/19 11:26:09;;;;;;;12.43;6.68;;;19.00;58.10;;;;;;6225819;23;20024;-92
2021/11/19 11:54:33;;;;;;;14.05;8.77;;;18.90;54.70;;;;;;5844118;24;20303;-90
2021/11/19 11:57:58;;;;;;;15.85;9.95;;;17.10;59.20;;;;;;5855302;24;20021;-90
2021/11/19 12:05:28;;;;;;;15.40;9.77;;;17.70;59.10;;;;;;6162441;23;20040;-90
2021/11/19 12:09:10;;;;;;;17.02;10.27;;;17.60;59.60;;;;;;6047301;23;20022;-92
2021/11/19 12:12:18;;;;;;;16.80;10.63;;;17.70;59.30;;;;;;6124217;23;20331;-91
2021/11/19 12:15:43;;;;;;;19.67;10.63;;;17.90;58.90;;;;;;6229951;23;20373;-88
2021/11/19 12:44:33;;;;;;;18.98;12.23;;;15.70;65.40;;;;;;6106724;23;20049;-91
2021/11/19 12:47:48;;;;;;;24.95;13.18;;;16.40;62.70;;;;;;6217481;23;20028;-90
2021/11/19 12:50:47;;;;;;;19.27;12.30;;;17.00;62.80;;;;;;6245000;23;20024;-88
2021/11/19 12:54:12;;;;;;;21.30;12.05;;;16.90;61.20;;;;;;6246526;23;20031;-89
2021/11/19 12:57:28;;;;;;;20.30;12.27;;;16.60;61.70;;;;;;6225365;23;20088;-89
2021/11/19 13:00:56;;;;;;;22.40;12.68;;;15.70;63.00;;;;;;6223136;23;20028;-88
2021/11/19 13:04:04;;;;;;;22.02;11.93;;;15.70;64.00;;;;;;6106215;23;20089;-89
2021/11/19 13:06:56;;;;;;;20.95;10.90;;;15.70;65.60;;;;;;6226090;23;20058;-89
2021/11/19 13:09:52;;;;;;;17.67;10.80;;;16.20;62.50;;;;;;6225814;23;20060;-91
2021/11/19 13:13:02;;;;;;;19.00;10.88;;;16.60;64.10;;;;;;6230044;22;20024;-92
2021/11/19 13:16:47;;;;;;;19.67;11.23;;;17.70;61.00;;;;;;6225975;23;20138;-91
2021/11/19 13:23:47;;;;;;;17.50;11.02;;;18.40;57.10;;;;;;6049959;23;20067;-90
2021/11/19 13:26:48;;;;;;;21.95;12.82;;;16.90;59.70;;;;;;6106659;23;20520;-89
2021/11/19 13:29:53;;;;;;;21.45;11.00;;;16.90;62.10;;;;;;6104241;23;20147;-88
2021/11/19 13:33:20;;;;;;;21.52;11.48;;;17.60;59.90;;;;;;6109975;23;20178;-89
2021/11/19 13:36:45;;;;;;;19.30;11.43;;;17.90;57.00;;;;;;6202653;23;20319;-89
2021/11/19 13:39:41;;;;;;;18.40;11.20;;;18.00;57.90;;;;;;6197051;23;20054;-88
2021/11/19 13:42:43;;;;;;;19.98;10.68;;;17.30;59.00;;;;;;6222378;23;20032;-89
2021/11/19 13:45:53;;;;;;;18.88;11.23;;;16.90;60.70;;;;;;6224746;22;20404;-88
2021/11/19 13:49:17;;;;;;;19.02;10.20;;;17.40;60.20;;;;;;6226459;23;20296;-87
2021/11/19 13:52:20;;;;;;;19.80;10.88;;;17.80;58.30;;;;;;6223323;23;20331;-88
2021/11/19 13:55:25;;;;;;;14.68;9.45;;;18.00;56.80;;;;;;6223352;23;20027;-89
2021/11/19 13:58:55;;;;;;;14.85;9.27;;;18.90;54.90;;;;;;6225863;23;20030;-88
2021/11/19 14:01:53;;;;;;;16.88;8.98;;;18.40;56.00;;;;;;6243049;23;20077;-87
2021/11/19 14:04:51;;;;;;;15.70;8.98;;;17.50;57.80;;;;;;6242577;23;20261;-87
2021/11/19 14:07:55;;;;;;;14.30;8.77;;;17.10;58.30;;;;;;6243243;23;20028;-89
2021/11/19 14:10:53;;;;;;;15.23;8.33;;;16.50;59.60;;;;;;6223711;23;20024;-89
2021/11/19 14:13:46;;;;;;;16.40;8.00;;;16.20;61.40;;;;;;6246437;22;20024;-89
2021/11/19 14:16:34;;;;;;;12.93;7.78;;;16.50;61.10;;;;;;6245540;23;20032;-89
2021/11/19 14:19:47;;;;;;;14.13;8.13;;;17.40;58.90;;;;;;6224489;23;20020;-89
2021/11/19 14:22:37;;;;;;;;;;;17.30;58.90;;;;;;6225526;23;20046;-89
2021/11/19 14:25:30;;;;;;;15.98;7.88;;;16.20;60.60;;;;;;6224003;23;20301;-89
2021/11/19 14:28:23;;;;;;;;;;;15.80;64.00;;;;;;6246529;23;20020;-89
2021/11/19 14:31:14;;;;;;;18.00;7.97;;;15.40;65.20;;;;;;6222650;23;19919;-90
2021/11/19 14:34:08;;;;;;;16.17;8.05;;;15.50;66.10;;;;;;6221640;23;20023;-87
2021/11/19 14:36:57;;;;;;;15.27;8.98;;;15.90;65.50;;;;;;6219537;23;20083;-86
2021/11/19 14:39:52;;;;;;;14.25;8.35;;;16.00;63.80;;;;;;6201636;23;20338;-87
2021/11/19 14:42:41;;;;;;;13.15;9.10;;;15.90;64.00;;;;;;6221665;23;20416;-86
2021/11/19 14:45:41;;;;;;;20.45;8.73;;;15.40;63.90;;;;;;6219584;23;20384;-86
2021/11/19 14:48:59;;;;;;;16.80;8.23;;;14.60;69.00;;;;;;6241706;23;20024;-87
2021/11/19 14:51:55;;;;;;;12.07;7.93;;;14.50;70.50;;;;;;6223181;22;20419;-88
2021/11/19 14:54:46;;;;;;;15.07;9.43;;;14.60;69.00;;;;;;6198720;23;20335;-86
2021/11/19 14:57:48;;;;;;;18.95;9.27;;;13.50;71.90;;;;;;6242816;23;20333;-89
2021/11/19 15:00:42;;;;;;;16.40;8.57;;;12.90;75.20;;;;;;6197258;23;20431;-85
2021/11/19 15:03:47;;;;;;;21.15;9.52;;;12.40;78.90;;;;;;6223353;22;20027;-87
2021/11/19 15:06:34;;;;;;;17.35;9.30;;;11.90;82.80;;;;;;6220530;23;20032;-87
2021/11/19 15:09:32;;;;;;;16.95;9.70;;;11.50;85.20;;;;;;6220545;23;20403;-86
2021/11/19 15:12:38;;;;;;;19.42;9.98;;;11.00;88.00;;;;;;6221154;23;20127;-86
2021/11/19 15:15:31;;;;;;;22.00;10.40;;;10.10;93.00;;;;;;6243474;23;20028;-88
2021/11/19 15:18:34;;;;;;;17.52;11.60;;;9.60;98.30;;;;;;6220756;23;20055;-87
2021/11/19 15:21:31;;;;;;;21.40;12.65;;;9.00;99.90;;;;;;6243904;23;20039;-88
2021/11/19 15:24:19;;;;;;;25.67;13.35;;;8.50;99.90;;;;;;6223244;23;20028;-88
2021/11/19 15:27:35;;;;;;;33.75;14.82;;;8.00;99.90;;;;;;6244417;23;20416;-88
2021/11/19 15:30:47;;;;;;;31.40;14.90;;;7.50;99.90;;;;;;6219376;23;20032;-87
2021/11/19 15:33:46;;;;;;;29.67;15.65;;;7.10;99.90;;;;;;6222057;23;20450;-88
2021/11/19 15:36:52;;;;;;;32.50;15.85;;;6.80;99.90;;;;;;6241570;23;20039;-87
2021/11/19 15:39:40;;;;;;;31.00;14.98;;;6.40;99.90;;;;;;6220781;23;20035;-88
2021/11/19 15:42:29;;;;;;;33.20;16.27;;;6.20;99.90;;;;;;6223435;23;20391;-88
2021/11/19 15:45:20;;;;;;;33.28;16.90;;;6.00;99.90;;;;;;6223864;22;20087;-87
2021/11/19 15:48:10;;;;;;;36.78;18.10;;;5.80;99.90;;;;;;6222543;23;20024;-88
2021/11/19 15:50:59;;;;;;;37.78;17.65;;;5.70;99.90;;;;;;6242340;23;20343;-87
2021/11/19 15:53:59;;;;;;;40.38;18.83;;;5.60;99.90;;;;;;6220781;23;20020;-87
2021/11/19 15:57:05;;;;;;;40.42;18.38;;;5.40;99.90;;;;;;6223072;23;20079;-88
2021/11/19 16:00:23;;;;;;;35.92;16.88;;;5.30;99.90;;;;;;6244366;23;20035;-87
2021/11/19 16:03:38;;;;;;;31.48;17.63;;;5.20;99.90;;;;;;6244638;22;20042;-87
2021/11/19 16:06:42;;;;;;;35.72;19.17;;;5.00;99.90;;;;;;6221831;23;20031;-86
2021/11/19 16:09:42;;;;;;;45.13;19.45;;;4.80;99.90;;;;;;6242096;23;20024;-87
2021/11/19 16:12:55;;;;;;;36.25;19.85;;;4.70;99.90;;;;;;6223204;22;20082;-86
2021/11/19 16:15:47;;;;;;;50.40;23.15;;;4.60;99.90;;;;;;6215888;23;20056;-87
2021/11/19 16:18:41;;;;;;;;;;;4.60;99.90;;;;;;6221450;23;20272;-86
2021/11/19 16:21:38;;;;;;;40.40;21.15;;;4.50;99.90;;;;;;6222192;23;20257;-86
2021/11/19 16:24:31;;;;;;;49.00;22.15;;;4.40;99.90;;;;;;6242892;23;20051;-86
2021/11/19 16:27:26;;;;;;;43.65;21.38;;;4.30;99.90;;;;;;6223559;22;20387;-85
2021/11/19 16:30:17;;;;;;;57.55;23.55;;;4.30;99.90;;;;;;6222536;23;20367;-86
2021/11/19 16:33:09;;;;;;;38.90;17.38;;;4.20;99.90;;;;;;6244678;23;20408;-86
2021/11/19 16:35:59;;;;;;;49.10;22.27;;;4.20;99.90;;;;;;6243060;23;20024;-86
2021/11/19 16:38:51;;;;;;;49.85;23.02;;;4.10;99.90;;;;;;6222764;23;20292;-87
2021/11/19 16:41:39;;;;;;;56.80;24.23;;;4.10;99.90;;;;;;6245219;22;20089;-86
2021/11/19 16:44:26;;;;;;;56.65;24.98;;;4.00;99.90;;;;;;6244345;23;20051;-87
2021/11/19 16:47:15;;;;;;;58.80;24.10;;;3.90;99.90;;;;;;6222341;23;20032;-87
2021/11/19 16:50:10;;;;;;;61.75;27.50;;;3.90;99.90;;;;;;6221386;23;20024;-87
2021/11/19 16:52:58;;;;;;;89.80;35.75;;;3.80;99.90;;;;;;6242189;23;20028;-87
2021/11/19 16:55:49;;;;;;;86.05;39.28;;;3.80;99.90;;;;;;6222664;23;20024;-87
2021/11/19 16:58:40;;;;;;;69.15;29.35;;;3.90;99.90;;;;;;6221994;23;20028;-87
2021/11/19 17:01:30;;;;;;;68.43;29.92;;;4.00;99.90;;;;;;6222707;23;20052;-87
2021/11/19 17:04:21;;;;;;;68.10;30.77;;;4.10;99.90;;;;;;6242875;23;20032;-87
2021/11/19 17:07:13;;;;;;;83.35;33.95;;;4.30;99.90;;;;;;6242596;23;20028;-87
2021/11/19 17:10:06;;;;;;;83.13;35.53;;;4.40;99.90;;;;;;6242214;23;20493;-87
2021/11/19 17:12:53;;;;;;;76.57;36.83;;;4.50;99.90;;;;;;6242562;23;20031;-87
2021/11/19 17:15:43;;;;;;;80.95;35.20;;;4.50;99.90;;;;;;6223079;22;20032;-88
2021/11/19 17:18:31;;;;;;;73.75;34.38;;;4.60;99.90;;;;;;6242679;23;20020;-88
2021/11/19 17:21:21;;;;;;;75.47;34.47;;;4.60;99.90;;;;;;6222217;22;20370;-88
2021/11/19 17:24:10;;;;;;;77.50;35.60;;;4.70;99.90;;;;;;6241676;23;20028;-89
2021/11/19 17:26:59;;;;;;;79.60;35.17;;;4.70;99.90;;;;;;6243662;22;20354;-89
2021/11/19 17:29:49;;;;;;;74.93;35.08;;;4.70;99.90;;;;;;6241847;23;20343;-89
2021/11/19 17:32:37;;;;;;;70.05;32.75;;;4.70;99.90;;;;;;6244681;22;20078;-87
2021/11/19 17:35:25;;;;;;;71.82;33.35;;;4.80;99.90;;;;;;6244793;22;20052;-88
2021/11/19 17:38:13;;;;;;;70.43;33.83;;;4.80;99.90;;;;;;6221454;23;20035;-90
2021/11/19 17:41:16;;;;;;;79.43;36.17;;;4.80;99.90;;;;;;6242620;23;20423;-88
2021/11/19 17:44:37;;;;;;;76.82;36.35;;;4.80;99.90;;;;;;6222309;23;20280;-87
2021/11/19 17:47:42;;;;;;;75.45;36.97;;;4.80;99.90;;;;;;6201495;23;20068;-88
2021/11/19 17:51:26;;;;;;;;;;;;;;;;;;;;;
2021/11/19 17:58:40;;;;;;;68.57;34.63;;;4.90;99.90;;;;;;6094479;23;20036;-88
2021/11/19 18:01:46;;;;;;;76.45;36.15;;;4.90;99.90;;;;;;5943640;23;20376;-87
2021/11/19 18:04:49;;;;;;;63.88;34.53;;;5.00;99.90;;;;;;5960425;23;20103;-88
2021/11/19 18:07:44;;;;;;;68.15;33.47;;;5.00;99.90;;;;;;6047689;23;20030;-88
2021/11/19 18:10:32;;;;;;;66.38;34.15;;;5.10;99.90;;;;;;6069037;23;20086;-90
2021/11/19 18:13:20;;;;;;;66.32;33.70;;;5.00;99.90;;;;;;6089134;23;20023;-88
2021/11/19 18:16:08;;;;;;;68.57;33.92;;;5.00;99.90;;;;;;6090980;23;20037;-87
2021/11/19 18:18:56;;;;;;;62.85;33.25;;;5.10;99.90;;;;;;6089577;23;20031;-89
2021/11/19 18:22:47;;;;;;;;;;;;;;;;;;;;;
2021/11/19 18:25:54;;;;;;;67.05;31.20;;;5.10;99.90;;;;;;6089406;23;20063;-86
2021/11/19 18:28:46;;;;;;;65.65;32.85;;;5.10;99.90;;;;;;6092574;23;20445;-88
2021/11/19 18:31:40;;;;;;;63.97;34.22;;;5.10;99.90;;;;;;6076908;23;20409;-87
2021/11/19 18:34:30;;;;;;;60.80;32.05;;;5.10;99.90;;;;;;6092145;23;20030;-87
2021/11/19 18:37:20;;;;;;;56.58;32.25;;;5.10;99.90;;;;;;6093499;23;20026;-88
2021/11/19 18:40:10;;;;;;;57.70;30.27;;;5.10;99.90;;;;;;6245346;22;20028;-87
2021/11/19 18:42:57;;;;;;;58.05;31.13;;;5.10;99.90;;;;;;6242079;23;20043;-87
2021/11/19 18:45:46;;;;;;;53.50;30.67;;;5.10;99.90;;;;;;6222425;23;20078;-87
2021/11/19 18:48:34;;;;;;;59.83;31.85;;;5.10;99.90;;;;;;6221146;23;20027;-87